createdAt,value
2017-08-21T00:01:36.721Z,76.90
2017-08-21T00:04:03.606Z,77.30
2017-08-21T00:06:30.489Z,77.80
2017-08-21T00:08:57.413Z,77.80
2017-08-21T00:11:24.298Z,77.50
2017-08-21T00:13:51.181Z,77.10
2017-08-21T00:16:18.219Z,77.00
2017-08-21T00:18:45.102Z,76.50
2017-08-21T00:21:12.001Z,76.00
2017-08-21T00:23:38.934Z,75.80
2017-08-21T00:26:05.824Z,76.20
2017-08-21T00:28:32.753Z,76.50
2017-08-21T00:30:59.731Z,76.80
2017-08-21T00:33:26.615Z,76.90
2017-08-21T00:35:53.512Z,77.00
2017-08-21T00:38:20.435Z,77.30
2017-08-21T00:40:47.349Z,77.60
2017-08-21T00:43:14.241Z,77.50
2017-08-21T00:45:41.181Z,77.60
2017-08-21T00:48:08.113Z,77.70
2017-08-21T00:50:35.056Z,77.40
2017-08-21T00:53:02.001Z,76.80
2017-08-21T00:55:28.889Z,77.10
2017-08-21T00:57:55.775Z,77.40
2017-08-21T01:00:22.755Z,77.40
2017-08-21T01:02:49.641Z,77.60
2017-08-21T01:05:16.575Z,77.70
2017-08-21T01:07:43.597Z,77.60
2017-08-21T01:10:10.482Z,77.30
2017-08-21T01:12:37.478Z,77.40
2017-08-21T01:15:04.517Z,77.20
2017-08-21T01:17:31.466Z,76.70
2017-08-21T01:19:58.353Z,77.50
2017-08-21T01:22:25.354Z,77.60
2017-08-21T01:24:52.301Z,77.80
2017-08-21T01:27:19.199Z,78.10
2017-08-21T01:29:46.153Z,77.90
2017-08-21T01:32:13.136Z,78.10
2017-08-21T01:34:40.018Z,78.10
2017-08-21T01:37:06.934Z,78.00
2017-08-21T01:39:33.881Z,77.90
2017-08-21T01:42:00.782Z,78.00
2017-08-21T01:44:27.765Z,78.00
2017-08-21T01:46:54.654Z,77.70
2017-08-21T01:49:21.554Z,77.80
2017-08-21T01:51:48.481Z,78.00
2017-08-21T01:54:15.452Z,77.80
2017-08-21T01:56:42.410Z,77.50
2017-08-21T01:59:09.391Z,77.30
2017-08-21T02:01:36.290Z,77.60
2017-08-21T02:04:03.182Z,77.00
2017-08-21T02:06:30.182Z,76.60
2017-08-21T02:08:57.128Z,76.70
2017-08-21T02:11:24.016Z,76.50
2017-08-21T02:13:51.033Z,76.80
2017-08-21T02:16:17.982Z,77.10
2017-08-21T02:18:44.866Z,77.30
2017-08-21T02:21:11.806Z,77.50
2017-08-21T02:23:38.710Z,77.70
2017-08-21T02:26:05.654Z,77.90
2017-08-21T02:28:32.583Z,78.00
2017-08-21T02:30:59.457Z,78.00
2017-08-21T02:33:26.391Z,78.20
2017-08-21T02:35:53.337Z,78.60
2017-08-21T02:38:32.285Z,78.70
2017-08-21T02:40:59.210Z,78.30
2017-08-21T02:43:26.096Z,78.30
2017-08-21T02:45:53.002Z,78.50
2017-08-21T02:48:19.942Z,78.30
2017-08-21T02:50:46.825Z,77.40
2017-08-21T02:53:13.741Z,77.40
2017-08-21T02:55:40.687Z,77.90
2017-08-21T02:58:07.633Z,78.30
2017-08-21T03:00:34.585Z,78.00
2017-08-21T03:03:01.537Z,78.00
2017-08-21T03:05:28.478Z,78.20
2017-08-21T03:07:55.365Z,78.50
2017-08-21T03:10:22.283Z,78.80
2017-08-21T03:12:49.214Z,78.80
2017-08-21T03:15:16.198Z,78.90
2017-08-21T03:17:43.209Z,79.00
2017-08-21T03:20:10.090Z,79.00
2017-08-21T03:22:37.094Z,79.20
2017-08-21T03:25:04.042Z,79.30
2017-08-21T03:27:30.940Z,79.20
2017-08-21T03:29:57.836Z,78.90
2017-08-21T03:32:24.780Z,78.80
2017-08-21T03:34:51.726Z,79.20
2017-08-21T03:37:18.685Z,79.30
2017-08-21T03:39:45.627Z,79.30
2017-08-21T03:42:12.574Z,79.00
2017-08-21T03:44:39.513Z,78.80
2017-08-21T03:47:06.461Z,78.60
2017-08-21T03:49:33.343Z,78.90
2017-08-21T03:52:00.226Z,79.20
2017-08-21T03:54:27.199Z,79.10
2017-08-21T03:56:54.085Z,79.10
2017-08-21T03:59:20.968Z,78.80
2017-08-21T04:01:47.934Z,78.30
2017-08-21T04:04:14.818Z,78.60
2017-08-21T04:06:41.717Z,78.80
2017-08-21T04:09:08.645Z,79.00
2017-08-21T04:11:35.617Z,79.00
2017-08-21T04:14:02.498Z,79.20
2017-08-21T04:16:29.505Z,79.30
2017-08-21T04:18:56.449Z,79.50
2017-08-21T04:21:23.400Z,79.30
2017-08-21T04:23:50.350Z,79.30
2017-08-21T04:26:17.298Z,79.30
2017-08-21T04:28:44.237Z,79.30
2017-08-21T04:31:11.185Z,79.20
2017-08-21T04:33:38.086Z,79.30
2017-08-21T04:36:04.985Z,79.90
2017-08-21T04:38:31.917Z,80.10
2017-08-21T04:40:58.801Z,80.40
2017-08-21T04:43:25.680Z,80.60
2017-08-21T04:45:52.657Z,80.40
2017-08-21T04:48:19.602Z,80.40
2017-08-21T04:50:46.507Z,80.50
2017-08-21T04:53:13.496Z,80.50
2017-08-21T04:55:40.441Z,80.60
2017-08-21T04:58:07.393Z,80.40
2017-08-21T05:00:34.337Z,80.20
2017-08-21T05:03:01.285Z,80.70
2017-08-21T05:05:28.173Z,81.30
2017-08-21T05:07:55.117Z,81.00
2017-08-21T05:10:22.023Z,81.10
2017-08-21T05:12:48.967Z,81.50
2017-08-21T05:15:15.889Z,80.80
2017-08-21T05:17:42.769Z,81.00
2017-08-21T05:20:09.665Z,80.80
2017-08-21T05:22:36.577Z,81.10
2017-08-21T05:25:03.461Z,80.50
2017-08-21T05:27:30.442Z,80.30
2017-08-21T05:29:57.431Z,80.40
2017-08-21T05:32:24.346Z,80.70
2017-08-21T05:34:51.277Z,80.10
2017-08-21T05:37:18.222Z,79.30
2017-08-21T05:39:45.113Z,79.30
2017-08-21T05:42:12.019Z,79.10
2017-08-21T05:44:38.938Z,78.90
2017-08-21T05:47:05.834Z,78.20
2017-08-21T05:49:32.710Z,77.90
2017-08-21T05:51:59.692Z,77.90
2017-08-21T05:54:26.577Z,77.70
2017-08-21T05:56:53.470Z,77.80
2017-08-21T05:59:20.426Z,77.80
2017-08-21T06:01:47.323Z,77.70
2017-08-21T06:04:14.222Z,77.80
2017-08-21T06:06:41.150Z,77.80
2017-08-21T06:09:08.125Z,77.70
2017-08-21T06:11:35.070Z,77.70
2017-08-21T06:14:02.020Z,76.80
2017-08-21T06:16:28.956Z,76.70
2017-08-21T06:18:55.843Z,76.90
2017-08-21T06:21:22.850Z,76.50
2017-08-21T06:23:49.797Z,76.50
2017-08-21T06:26:16.741Z,76.20
2017-08-21T06:28:43.696Z,75.30
2017-08-21T06:31:10.640Z,75.40
2017-08-21T06:33:37.530Z,75.40
2017-08-21T06:36:04.525Z,75.20
2017-08-21T06:38:31.490Z,74.30
2017-08-21T06:40:58.390Z,73.90
2017-08-21T06:43:25.365Z,73.90
2017-08-21T06:45:52.318Z,74.30
2017-08-21T06:48:19.206Z,74.50
2017-08-21T06:50:46.209Z,74.30
2017-08-21T06:53:13.094Z,74.50
2017-08-21T06:55:39.995Z,74.30
2017-08-21T06:58:06.941Z,74.10
2017-08-21T07:00:33.936Z,74.10
2017-08-21T07:03:00.938Z,74.50
2017-08-21T07:05:27.889Z,74.20
2017-08-21T07:07:54.835Z,74.20
2017-08-21T07:10:21.733Z,74.20
2017-08-21T07:12:48.727Z,74.20
2017-08-21T07:15:15.674Z,74.20
2017-08-21T07:17:42.554Z,74.20
2017-08-21T07:20:09.510Z,73.20
2017-08-21T07:22:36.452Z,73.50
2017-08-21T07:25:03.336Z,73.40
2017-08-21T07:27:30.257Z,73.30
2017-08-21T07:29:57.249Z,72.70
2017-08-21T07:32:24.196Z,72.10
2017-08-21T07:34:51.144Z,72.20
2017-08-21T07:37:18.081Z,72.50
2017-08-21T07:39:45.078Z,71.90
2017-08-21T07:42:12.025Z,72.20
2017-08-21T07:44:38.929Z,72.50
2017-08-21T07:47:05.882Z,72.90
2017-08-21T07:49:32.823Z,73.30
2017-08-21T07:51:59.828Z,73.30
2017-08-21T07:54:26.714Z,72.70
2017-08-21T07:56:53.645Z,72.60
2017-08-21T07:59:20.530Z,72.80
2017-08-21T08:01:47.549Z,72.90
2017-08-21T08:04:14.497Z,73.30
2017-08-21T08:06:41.449Z,73.20
2017-08-21T08:09:08.390Z,73.10
2017-08-21T08:11:35.310Z,72.60
2017-08-21T08:14:02.291Z,72.80
2017-08-21T08:16:29.233Z,73.30
2017-08-21T08:18:56.210Z,72.80
2017-08-21T08:21:23.117Z,72.10
2017-08-21T08:23:50.066Z,72.00
2017-08-21T08:26:17.014Z,71.40
2017-08-21T08:28:43.962Z,71.20
2017-08-21T08:31:10.837Z,70.80
2017-08-21T08:33:37.849Z,70.30
2017-08-21T08:36:04.803Z,70.10
2017-08-21T08:38:31.749Z,69.50
2017-08-21T08:40:58.694Z,69.30
2017-08-21T08:43:25.594Z,68.90
2017-08-21T08:45:52.476Z,69.20
2017-08-21T08:48:19.425Z,68.80
2017-08-21T08:50:46.420Z,69.60
2017-08-21T08:53:13.313Z,69.30
2017-08-21T08:55:40.265Z,68.50
2017-08-21T08:58:07.214Z,69.00
2017-08-21T09:00:34.167Z,69.00
2017-08-21T09:03:01.239Z,69.10
2017-08-21T09:05:28.121Z,67.40
2017-08-21T09:07:55.100Z,66.50
2017-08-21T09:10:22.047Z,67.70
2017-08-21T09:12:48.925Z,67.30
2017-08-21T09:15:15.946Z,67.10
2017-08-21T09:17:42.894Z,64.50
2017-08-21T09:20:09.840Z,64.80
2017-08-21T09:22:36.784Z,64.10
2017-08-21T09:25:03.741Z,63.40
2017-08-21T09:27:30.698Z,62.40
2017-08-21T09:29:57.601Z,61.70
2017-08-21T09:32:24.573Z,61.10
2017-08-21T09:34:51.527Z,62.30
2017-08-21T09:37:18.445Z,62.70
2017-08-21T09:39:45.422Z,62.70
2017-08-21T09:42:12.369Z,62.50
2017-08-21T09:44:39.340Z,61.80
2017-08-21T09:47:06.279Z,59.90
2017-08-21T09:49:33.174Z,60.70
2017-08-21T09:52:00.137Z,59.30
2017-08-21T09:54:27.087Z,59.70
2017-08-21T09:56:54.037Z,60.30
2017-08-21T09:59:20.937Z,62.10
2017-08-21T10:01:47.921Z,61.80
2017-08-21T10:04:14.806Z,61.50
2017-08-21T10:06:41.694Z,59.90
2017-08-21T10:09:08.723Z,60.10
2017-08-21T10:12:23.695Z,60.50
2017-08-21T10:14:50.637Z,60.80
2017-08-21T10:17:17.593Z,60.10
2017-08-21T10:19:44.540Z,60.00
2017-08-21T10:22:11.482Z,59.60
2017-08-21T10:24:38.417Z,59.60
2017-08-21T10:27:05.412Z,60.00
2017-08-21T10:29:32.328Z,58.60
2017-08-21T10:31:59.223Z,57.80
2017-08-21T10:34:26.106Z,58.80
2017-08-21T10:36:53.030Z,59.20
2017-08-21T10:39:19.994Z,59.60
2017-08-21T10:41:46.941Z,57.70
2017-08-21T10:44:13.890Z,58.30
2017-08-21T10:46:40.818Z,57.60
2017-08-21T10:49:07.694Z,57.50
2017-08-21T10:51:34.625Z,59.10
2017-08-21T10:54:01.513Z,59.50
2017-08-21T10:56:28.394Z,60.30
2017-08-21T10:58:55.361Z,60.00
2017-08-21T11:01:22.310Z,60.70
2017-08-21T11:03:49.261Z,60.30
2017-08-21T11:06:16.186Z,61.00
2017-08-21T11:08:43.150Z,60.10
2017-08-21T11:11:10.110Z,59.70
2017-08-21T11:13:37.146Z,60.20
2017-08-21T11:16:04.102Z,60.20
2017-08-21T11:18:30.985Z,60.30
2017-08-21T11:20:57.937Z,59.50
2017-08-21T11:23:24.857Z,59.90
2017-08-21T11:25:51.809Z,59.70
2017-08-21T11:28:18.741Z,60.40
2017-08-21T11:30:45.634Z,61.10
2017-08-21T11:33:12.505Z,59.90
2017-08-21T11:35:39.468Z,60.40
2017-08-21T11:38:06.409Z,58.90
2017-08-21T11:40:33.290Z,59.40
2017-08-21T11:43:00.221Z,59.90
2017-08-21T11:45:27.141Z,59.30
2017-08-21T11:47:54.083Z,60.00
2017-08-21T11:50:21.037Z,58.90
2017-08-21T11:52:47.979Z,59.20
2017-08-21T11:55:14.938Z,59.20
2017-08-21T11:57:41.873Z,58.90
2017-08-21T12:00:08.864Z,57.90
2017-08-21T12:02:35.765Z,59.00
2017-08-21T12:05:02.719Z,58.80
2017-08-21T12:07:29.626Z,58.60
2017-08-21T12:09:56.509Z,58.40
2017-08-21T12:12:23.449Z,57.50
2017-08-21T12:14:50.391Z,58.60
2017-08-21T12:17:17.273Z,58.70
2017-08-21T12:19:44.305Z,58.80
2017-08-21T12:22:11.193Z,58.80
2017-08-21T12:24:38.181Z,58.20
2017-08-21T12:27:05.118Z,57.90
2017-08-21T12:29:32.002Z,58.90
2017-08-21T12:31:58.917Z,58.90
2017-08-21T12:34:25.909Z,59.00
2017-08-21T12:36:52.792Z,58.70
2017-08-21T12:39:19.763Z,58.40
2017-08-21T12:41:46.689Z,57.60
2017-08-21T12:44:13.585Z,58.20
2017-08-21T12:46:40.474Z,58.00
2017-08-21T12:49:07.442Z,57.20
2017-08-21T12:51:34.384Z,56.10
2017-08-21T12:54:01.285Z,56.70
2017-08-21T12:56:28.202Z,56.70
2017-08-21T12:58:55.093Z,56.70
2017-08-21T13:01:21.981Z,56.80
2017-08-21T13:03:48.905Z,57.40
2017-08-21T13:06:15.873Z,58.00
2017-08-21T13:08:42.805Z,58.00
2017-08-21T13:11:09.798Z,58.00
2017-08-21T13:13:36.706Z,58.50
2017-08-21T13:16:03.690Z,57.70
2017-08-21T13:18:30.693Z,56.70
2017-08-21T13:20:57.574Z,56.10
2017-08-21T13:23:24.522Z,55.90
2017-08-21T13:25:51.540Z,56.10
2017-08-21T13:28:18.482Z,56.40
2017-08-21T13:30:45.425Z,57.30
2017-08-21T13:33:12.398Z,56.60
2017-08-21T13:35:39.292Z,56.00
2017-08-21T13:38:06.173Z,55.60
2017-08-21T13:40:33.205Z,56.60
2017-08-21T13:43:00.081Z,55.10
2017-08-21T13:45:27.007Z,55.70
2017-08-21T13:47:53.921Z,55.30
2017-08-21T13:50:20.802Z,56.00
2017-08-21T13:52:47.690Z,56.90
2017-08-21T13:55:14.682Z,56.20
2017-08-21T13:57:41.561Z,56.10
2017-08-21T14:00:08.446Z,57.10
2017-08-21T14:02:35.361Z,56.40
2017-08-21T14:05:02.266Z,56.60
2017-08-21T14:07:29.157Z,56.40
2017-08-21T14:09:56.157Z,56.40
2017-08-21T14:12:23.101Z,56.20
2017-08-21T14:14:50.053Z,55.70
2017-08-21T14:17:16.970Z,55.50
2017-08-21T14:19:43.845Z,56.00
2017-08-21T14:22:10.731Z,55.50
2017-08-21T14:24:37.729Z,56.40
2017-08-21T14:27:04.718Z,54.80
2017-08-21T14:29:31.598Z,55.10
2017-08-21T14:31:58.569Z,55.60
2017-08-21T14:34:25.462Z,55.00
2017-08-21T14:36:52.366Z,54.30
2017-08-21T14:39:19.358Z,54.80
2017-08-21T14:41:46.253Z,55.80
2017-08-21T14:44:13.207Z,55.90
2017-08-21T14:46:40.154Z,56.10
2017-08-21T14:49:07.093Z,56.20
2017-08-21T14:51:33.987Z,56.20
2017-08-21T14:54:00.913Z,55.80
2017-08-21T14:56:27.829Z,55.60
2017-08-21T14:58:54.782Z,55.20
2017-08-21T15:01:21.769Z,54.20
2017-08-21T15:03:48.679Z,54.70
2017-08-21T15:06:15.626Z,54.00
2017-08-21T15:08:42.583Z,53.80
2017-08-21T15:11:09.465Z,53.70
2017-08-21T15:13:36.377Z,54.70
2017-08-21T15:16:03.338Z,55.10
2017-08-21T15:18:30.319Z,54.30
2017-08-21T15:20:57.300Z,54.40
2017-08-21T15:23:24.241Z,54.50
2017-08-21T15:25:51.185Z,55.10
2017-08-21T15:28:18.135Z,55.20
2017-08-21T15:30:45.182Z,54.30
2017-08-21T15:33:12.073Z,53.60
2017-08-21T15:35:38.973Z,54.10
2017-08-21T15:38:05.898Z,54.70
2017-08-21T15:40:32.871Z,54.20
2017-08-21T15:42:59.962Z,54.60
2017-08-21T15:45:26.961Z,54.00
2017-08-21T15:47:53.917Z,53.70
2017-08-21T15:50:20.806Z,53.80
2017-08-21T15:52:47.806Z,54.10
2017-08-21T15:55:14.681Z,52.20
2017-08-21T15:57:41.593Z,52.80
2017-08-21T16:00:08.538Z,52.90
2017-08-21T16:02:35.485Z,51.80
2017-08-21T16:05:02.581Z,52.70
2017-08-21T16:07:29.592Z,51.70
2017-08-21T16:09:56.530Z,51.60
2017-08-21T16:12:23.479Z,52.20
2017-08-21T16:14:50.434Z,51.40
2017-08-21T16:17:17.369Z,51.70
2017-08-21T16:19:44.317Z,52.30
2017-08-21T16:22:11.266Z,50.90
2017-08-21T16:24:38.157Z,50.60
2017-08-21T16:27:05.046Z,50.10
2017-08-21T16:29:31.997Z,50.00
2017-08-21T16:31:58.881Z,49.20
2017-08-21T16:34:25.769Z,48.10
2017-08-21T16:36:52.685Z,46.70
2017-08-21T16:39:19.572Z,47.20
2017-08-21T16:41:46.467Z,46.20
2017-08-21T16:44:13.471Z,46.10
2017-08-21T16:46:40.353Z,45.70
2017-08-21T16:49:07.309Z,45.10
2017-08-21T16:51:34.311Z,45.10
2017-08-21T16:54:01.190Z,45.30
2017-08-21T16:56:28.065Z,44.80
2017-08-21T16:58:55.045Z,45.10
2017-08-21T17:01:22.000Z,44.90
2017-08-21T17:03:48.942Z,45.60
2017-08-21T17:06:15.877Z,46.20
2017-08-21T17:08:42.778Z,47.30
2017-08-21T17:11:09.677Z,48.10
2017-08-21T17:13:36.626Z,48.30
2017-08-21T17:16:03.569Z,49.60
2017-08-21T17:18:30.520Z,50.80
2017-08-21T17:20:57.462Z,51.30
2017-08-21T17:23:24.414Z,52.10
2017-08-21T17:25:51.460Z,52.70
2017-08-21T17:28:18.506Z,53.10
2017-08-21T17:30:45.453Z,53.50
2017-08-21T17:33:12.339Z,53.40
2017-08-21T17:35:39.363Z,53.70
2017-08-21T17:38:06.266Z,54.30
2017-08-21T17:40:33.241Z,54.70
2017-08-21T17:43:00.188Z,55.00
2017-08-21T17:45:27.074Z,54.90
2017-08-21T17:47:53.981Z,54.50
2017-08-21T17:50:20.928Z,53.90
2017-08-21T17:52:47.865Z,53.70
2017-08-21T17:55:14.818Z,53.10
2017-08-21T17:57:41.745Z,53.20
2017-08-21T18:00:08.629Z,53.00
2017-08-21T18:02:35.598Z,53.50
2017-08-21T18:05:02.521Z,54.00
2017-08-21T18:07:29.445Z,54.60
2017-08-21T18:09:56.393Z,55.40
2017-08-21T18:12:23.351Z,56.30
2017-08-21T18:14:50.282Z,57.40
2017-08-21T18:17:17.242Z,58.10
2017-08-21T18:19:44.161Z,59.00
2017-08-21T18:22:11.138Z,59.20
2017-08-21T18:24:38.076Z,59.60
2017-08-21T18:27:05.002Z,60.10
2017-08-21T18:29:31.893Z,60.50
2017-08-21T18:31:58.810Z,60.70
2017-08-21T18:34:25.754Z,61.20
2017-08-21T18:36:52.659Z,61.60
2017-08-21T18:39:19.564Z,61.80
2017-08-21T18:41:46.598Z,62.20
2017-08-21T18:44:13.547Z,62.50
2017-08-21T18:46:40.442Z,62.60
2017-08-21T18:49:07.357Z,62.80
2017-08-21T18:51:34.281Z,63.30
2017-08-21T18:54:01.224Z,63.20
2017-08-21T18:56:28.151Z,63.20
2017-08-21T18:58:55.113Z,63.50
2017-08-21T19:01:22.071Z,63.10
2017-08-21T19:03:49.005Z,63.10
2017-08-21T19:06:15.955Z,63.00
2017-08-21T19:08:42.914Z,63.50
2017-08-21T19:11:10.569Z,63.30
2017-08-21T19:13:37.513Z,64.20
2017-08-21T19:16:04.410Z,64.90
2017-08-21T19:18:31.401Z,64.90
2017-08-21T19:20:58.294Z,64.70
2017-08-21T19:23:25.185Z,64.80
2017-08-21T19:25:52.258Z,65.30
2017-08-21T19:28:19.148Z,65.70
2017-08-21T19:30:46.032Z,66.00
2017-08-21T19:33:12.988Z,66.20
2017-08-21T19:35:39.946Z,66.20
2017-08-21T19:38:06.873Z,66.40
2017-08-21T19:40:33.834Z,66.40
2017-08-21T19:43:00.762Z,66.50
2017-08-21T19:45:27.719Z,66.50
2017-08-21T19:50:27.045Z,66.40
2017-08-21T19:52:54.084Z,66.60
2017-08-21T19:55:20.974Z,66.70
2017-08-21T19:57:47.887Z,66.90
2017-08-21T20:00:14.805Z,67.20
2017-08-21T20:02:41.761Z,68.50
2017-08-21T20:05:08.722Z,68.70
2017-08-21T20:07:35.680Z,69.00
2017-08-21T20:10:02.606Z,69.00
2017-08-21T20:12:29.493Z,69.10
2017-08-21T20:14:56.410Z,70.00
2017-08-21T20:17:23.299Z,70.70
2017-08-21T20:19:50.188Z,70.90
2017-08-21T20:22:17.126Z,71.10
2017-08-21T20:24:44.082Z,70.80
2017-08-21T20:27:11.046Z,70.90
2017-08-21T20:29:37.961Z,71.10
2017-08-21T20:32:04.954Z,71.40
2017-08-21T20:34:31.907Z,71.10
2017-08-21T20:36:58.904Z,70.80
2017-08-21T20:39:25.900Z,70.70
2017-08-21T20:41:52.801Z,70.60
2017-08-21T20:44:19.755Z,70.70
2017-08-21T20:46:46.634Z,70.30
2017-08-21T20:49:13.519Z,70.00
2017-08-21T20:51:40.486Z,71.00
2017-08-21T20:54:07.371Z,70.80
2017-08-21T20:56:34.402Z,70.10
2017-08-21T20:59:01.377Z,70.10
2017-08-21T21:01:28.267Z,69.80
2017-08-21T21:03:55.165Z,69.50
2017-08-21T21:06:22.115Z,69.40
2017-08-21T21:08:49.058Z,69.80
2017-08-21T21:11:15.947Z,68.80
2017-08-21T21:13:42.925Z,69.20
2017-08-21T21:16:09.808Z,69.40
2017-08-21T21:18:36.744Z,69.80
2017-08-21T21:21:03.702Z,69.80
2017-08-21T21:23:30.593Z,69.90
2017-08-21T21:25:57.481Z,69.90
2017-08-21T21:28:24.422Z,70.30
2017-08-21T21:30:51.302Z,70.40
2017-08-21T21:33:18.189Z,70.40
2017-08-21T21:35:45.177Z,70.10
2017-08-21T21:38:12.066Z,70.50
2017-08-21T21:40:39.057Z,70.20
2017-08-21T21:43:06.088Z,70.30
2017-08-21T21:45:33.020Z,70.00
2017-08-21T21:47:59.914Z,70.10
2017-08-21T21:50:26.933Z,70.20
2017-08-21T21:52:53.874Z,70.30
2017-08-21T21:55:20.794Z,70.50
2017-08-21T21:57:47.713Z,71.10
2017-08-21T22:00:14.601Z,70.80
2017-08-21T22:02:41.553Z,70.60
2017-08-21T22:05:08.493Z,70.70
2017-08-21T22:07:35.446Z,71.10
2017-08-21T22:10:02.329Z,70.60
2017-08-21T22:12:29.261Z,70.70
2017-08-21T22:14:56.181Z,70.70
2017-08-21T22:17:23.160Z,71.10
2017-08-21T22:19:50.170Z,71.30
2017-08-21T22:22:17.122Z,71.10
2017-08-21T22:24:44.010Z,71.60
2017-08-21T22:27:10.942Z,71.10
2017-08-21T22:29:37.865Z,71.30
2017-08-21T22:32:04.753Z,71.00
2017-08-21T22:34:31.758Z,70.60
2017-08-21T22:36:58.705Z,70.50
2017-08-21T22:39:25.594Z,70.60
2017-08-21T22:41:52.593Z,69.70
2017-08-21T22:44:19.537Z,70.60
2017-08-21T22:46:46.430Z,69.90
2017-08-21T22:49:13.395Z,70.50
2017-08-21T22:51:40.285Z,70.70
2017-08-21T22:54:07.173Z,70.60
2017-08-21T22:56:34.161Z,70.70
2017-08-21T22:59:01.049Z,70.60
2017-08-21T23:01:27.969Z,70.10
2017-08-21T23:03:54.905Z,70.80
2017-08-21T23:06:21.798Z,70.40
2017-08-21T23:08:48.706Z,70.70
2017-08-21T23:11:15.629Z,71.10
2017-08-21T23:13:42.585Z,71.00
2017-08-21T23:16:09.474Z,70.60
2017-08-21T23:18:36.481Z,70.70
2017-08-21T23:21:03.367Z,70.80
2017-08-21T23:23:30.253Z,70.10
2017-08-21T23:25:57.222Z,70.10
2017-08-21T23:28:24.150Z,70.30
2017-08-21T23:30:51.151Z,70.30
2017-08-21T23:33:18.156Z,70.70
2017-08-21T23:35:45.106Z,70.70
2017-08-21T23:38:12.057Z,70.80
2017-08-21T23:40:39.007Z,71.10
2017-08-21T23:43:05.945Z,71.20
2017-08-21T23:45:32.894Z,71.30
2017-08-21T23:47:59.857Z,71.80
2017-08-21T23:50:26.802Z,71.70
2017-08-21T23:52:53.729Z,71.90
2017-08-21T23:55:20.669Z,72.00
2017-08-21T23:57:47.549Z,72.20
